createdAt,value
2023-02-11T00:02:24.339Z,4.30
2023-02-11T00:07:26.837Z,3.67
2023-02-11T00:12:29.807Z,4.43
2023-02-11T00:17:32.980Z,5.57
2023-02-11T00:22:35.406Z,4.53
2023-02-11T00:27:38.353Z,5.25
2023-02-11T00:32:42.847Z,5.40
2023-02-11T00:37:45.267Z,5.18
2023-02-11T00:42:47.856Z,5.40
2023-02-11T00:47:50.289Z,5.00
2023-02-11T00:52:52.766Z,4.40
2023-02-11T00:57:55.233Z,4.53
2023-02-11T01:02:57.680Z,4.38
2023-02-11T01:08:00.295Z,3.25
2023-02-11T01:13:02.898Z,4.18
2023-02-11T01:18:06.595Z,4.35
2023-02-11T01:23:09.159Z,2.95
2023-02-11T01:28:21.631Z,4.47
2023-02-11T01:33:24.868Z,1.67
2023-02-11T01:38:27.315Z,4.28
2023-02-11T01:43:34.900Z,4.45
2023-02-11T01:48:42.077Z,2.97
2023-02-11T01:54:03.748Z,7.15
2023-02-11T01:59:13.588Z,4.55
2023-02-11T02:04:19.311Z,3.33
2023-02-11T02:09:29.137Z,5.90
2023-02-11T02:14:31.837Z,5.97
2023-02-11T02:19:37.187Z,6.10
2023-02-11T02:25:04.228Z,3.67
2023-02-11T02:30:40.403Z,5.43
2023-02-11T02:35:54.224Z,6.35
2023-02-11T02:41:18.068Z,3.40
2023-02-11T02:46:21.866Z,4.30
2023-02-11T02:51:54.602Z,3.88
2023-02-11T02:56:56.929Z,3.55
2023-02-11T03:02:11.062Z,3.08
2023-02-11T03:07:23.396Z,4.55
2023-02-11T03:12:28.458Z,3.42
2023-02-11T03:17:33.890Z,3.72
2023-02-11T03:22:43.121Z,2.78
2023-02-11T03:27:49.684Z,3.40
2023-02-11T03:32:57.798Z,3.72
2023-02-11T03:38:10.656Z,2.03
2023-02-11T03:43:17.444Z,3.08
2023-02-11T03:48:25.997Z,2.95
2023-02-11T03:53:28.400Z,3.03
2023-02-11T03:58:31.018Z,2.88
2023-02-11T04:03:33.479Z,3.95
2023-02-11T04:08:36.018Z,3.72
2023-02-11T04:13:38.365Z,2.70
2023-02-11T04:18:40.770Z,3.25
2023-02-11T04:23:43.254Z,3.15
2023-02-11T04:28:45.564Z,1.38
2023-02-11T04:33:47.999Z,3.65
2023-02-11T04:38:50.367Z,1.42
2023-02-11T04:43:55.334Z,2.50
2023-02-11T04:48:57.881Z,1.85
2023-02-11T04:54:00.301Z,2.25
2023-02-11T04:59:02.871Z,2.60
2023-02-11T05:04:05.592Z,2.38
2023-02-11T05:09:12.958Z,2.58
2023-02-11T05:14:15.479Z,2.95
2023-02-11T05:19:18.103Z,1.30
2023-02-11T05:24:21.300Z,3.90
2023-02-11T05:29:23.709Z,3.60
2023-02-11T05:34:26.330Z,2.30
2023-02-11T05:39:28.880Z,3.88
2023-02-11T05:44:31.324Z,4.88
2023-02-11T05:49:33.744Z,2.22
2023-02-11T05:54:36.198Z,3.38
2023-02-11T05:59:40.264Z,3.47
2023-02-11T06:04:42.905Z,2.55
2023-02-11T06:09:45.456Z,3.25
2023-02-11T06:14:47.802Z,3.13
2023-02-11T06:19:50.250Z,4.90
2023-02-11T06:25:01.225Z,4.55
2023-02-11T06:30:07.722Z,4.18
2023-02-11T06:35:12.049Z,2.88
2023-02-11T06:40:15.014Z,3.83
2023-02-11T06:45:17.622Z,4.32
2023-02-11T06:50:20.142Z,4.40
2023-02-11T06:55:22.566Z,4.50
2023-02-11T07:00:25.113Z,3.60
2023-02-11T07:05:27.609Z,4.50
2023-02-11T07:10:30.169Z,4.25
2023-02-11T07:15:32.949Z,3.78
2023-02-11T07:20:38.326Z,4.03
2023-02-11T07:25:40.746Z,3.42
2023-02-11T07:30:43.242Z,3.97
2023-02-11T07:35:45.986Z,3.60
2023-02-11T07:40:49.399Z,3.80
2023-02-11T07:45:51.993Z,3.35
2023-02-11T07:50:54.569Z,2.92
2023-02-11T07:55:56.961Z,4.03
2023-02-11T08:01:08.492Z,4.25
2023-02-11T08:06:14.456Z,3.58
2023-02-11T08:11:18.014Z,3.70
2023-02-11T08:16:28.186Z,3.40
2023-02-11T08:21:30.770Z,4.13
2023-02-11T08:26:37.441Z,4.13
2023-02-11T08:31:43.063Z,3.97
2023-02-11T08:36:47.262Z,4.07
2023-02-11T08:41:56.839Z,4.30
2023-02-11T08:46:59.538Z,3.60
2023-02-11T08:52:04.455Z,3.67
2023-02-11T08:57:06.984Z,4.25
2023-02-11T09:02:13.742Z,3.92
2023-02-11T09:07:18.735Z,3.20
2023-02-11T09:12:21.189Z,4.07
2023-02-11T09:17:23.696Z,4.03
2023-02-11T09:22:26.164Z,3.55
2023-02-11T09:27:28.642Z,4.10
2023-02-11T09:32:31.139Z,4.75
2023-02-11T09:37:36.288Z,4.28
2023-02-11T09:42:50.667Z,4.07
2023-02-11T09:48:16.547Z,4.43
2023-02-11T09:53:26.469Z,4.40
2023-02-11T09:58:32.707Z,4.28
2023-02-11T10:03:58.000Z,3.75
2023-02-11T10:09:09.464Z,3.58
2023-02-11T10:14:45.648Z,3.97
2023-02-11T10:20:07.132Z,3.75
2023-02-11T10:25:59.396Z,4.05
2023-02-11T10:31:16.112Z,4.63
2023-02-11T10:36:21.250Z,4.57
2023-02-11T10:41:35.442Z,3.95
2023-02-11T10:46:41.219Z,3.85
2023-02-11T10:51:43.749Z,4.00
2023-02-11T10:56:52.392Z,4.55
2023-02-11T11:02:00.850Z,4.25
2023-02-11T11:07:20.807Z,4.70
2023-02-11T11:12:53.180Z,3.88
2023-02-11T11:18:21.897Z,3.42
2023-02-11T11:23:26.190Z,3.85
2023-02-11T11:28:31.027Z,3.28
2023-02-11T11:33:36.008Z,3.35
2023-02-11T11:38:45.398Z,3.70
2023-02-11T11:43:58.808Z,3.78
2023-02-11T11:49:30.150Z,3.42
2023-02-11T11:54:34.781Z,4.57
2023-02-11T11:59:38.513Z,4.53
2023-02-11T12:05:11.267Z,3.97
2023-02-11T12:10:19.674Z,3.15
2023-02-11T12:16:04.303Z,3.78
2023-02-11T12:21:21.775Z,3.78
2023-02-11T12:26:29.420Z,3.40
2023-02-11T12:31:56.323Z,3.97
2023-02-11T12:37:09.600Z,2.38
2023-02-11T12:42:49.118Z,2.88
2023-02-11T12:48:13.184Z,3.53
2023-02-11T12:53:49.967Z,3.25
2023-02-11T12:58:56.287Z,3.28
2023-02-11T13:04:26.546Z,3.50
2023-02-11T13:09:53.033Z,2.35
2023-02-11T13:14:59.808Z,3.00
2023-02-11T13:20:15.650Z,3.47
2023-02-11T13:25:31.858Z,2.75
2023-02-11T13:30:41.299Z,2.88
2023-02-11T13:36:09.707Z,3.90
2023-02-11T13:41:25.918Z,2.40
2023-02-11T13:46:30.559Z,2.75
2023-02-11T13:51:42.732Z,3.70
2023-02-11T13:56:46.595Z,3.03
2023-02-11T14:02:09.078Z,3.65
2023-02-11T14:07:51.889Z,3.35
2023-02-11T14:13:16.939Z,2.78
2023-02-11T14:18:38.866Z,3.78
2023-02-11T14:23:42.436Z,3.10
2023-02-11T14:28:47.201Z,5.00
2023-02-11T14:34:15.416Z,4.80
2023-02-11T14:39:40.654Z,3.60
2023-02-11T14:44:43.157Z,4.70
2023-02-11T14:49:45.723Z,4.63
2023-02-11T14:54:51.470Z,3.55
2023-02-11T15:00:21.913Z,3.92
2023-02-11T15:05:30.008Z,5.32
2023-02-11T15:10:55.586Z,4.07
2023-02-11T15:16:06.979Z,3.50
2023-02-11T15:21:10.443Z,3.63
2023-02-11T15:26:22.673Z,4.50
2023-02-11T15:31:27.566Z,5.93
2023-02-11T15:36:34.599Z,3.75
2023-02-11T15:41:38.568Z,4.53
2023-02-11T15:46:41.499Z,5.18
2023-02-11T15:51:46.497Z,3.75
2023-02-11T15:56:51.809Z,3.70
2023-02-11T16:01:55.492Z,4.82
2023-02-11T16:06:58.346Z,3.80
2023-02-11T16:12:24.821Z,4.38
2023-02-11T16:17:30.528Z,3.85
2023-02-11T16:22:38.371Z,4.20
2023-02-11T16:27:43.454Z,3.63
2023-02-11T16:32:45.916Z,4.82
2023-02-11T16:37:48.399Z,5.32
2023-02-11T16:42:52.695Z,3.40
2023-02-11T16:47:55.213Z,4.18
2023-02-11T16:52:59.713Z,3.78
2023-02-11T16:58:02.213Z,4.43
2023-02-11T17:03:09.177Z,6.93
2023-02-11T17:08:12.164Z,3.50
2023-02-11T17:13:14.718Z,6.45
2023-02-11T17:18:17.161Z,6.47
2023-02-11T17:23:19.527Z,6.32
2023-02-11T17:28:22.482Z,4.75
2023-02-11T17:33:25.252Z,7.32
2023-02-11T17:38:27.830Z,4.63
2023-02-11T17:43:30.659Z,6.65
2023-02-11T17:48:33.110Z,5.75
2023-02-11T17:53:35.847Z,8.15
2023-02-11T17:58:38.629Z,6.18
2023-02-11T18:03:41.209Z,7.78
2023-02-11T18:08:46.258Z,6.95
2023-02-11T18:13:54.585Z,6.47
2023-02-11T18:18:58.606Z,8.13
2023-02-11T18:24:06.717Z,7.65
2023-02-11T18:29:09.749Z,7.55
2023-02-11T18:34:16.213Z,5.53
2023-02-11T18:39:20.320Z,6.75
2023-02-11T18:44:25.049Z,8.35
2023-02-11T18:49:27.752Z,6.40
2023-02-11T18:54:30.262Z,8.05
2023-02-11T18:59:32.683Z,6.70
2023-02-11T19:04:37.537Z,6.75
2023-02-11T19:09:39.996Z,9.02
2023-02-11T19:14:42.676Z,6.78
2023-02-11T19:19:45.114Z,4.78
2023-02-11T19:24:47.695Z,8.13
2023-02-11T19:29:50.224Z,5.70
2023-02-11T19:34:53.463Z,5.15
2023-02-11T19:39:55.969Z,5.07
2023-02-11T19:45:00.672Z,7.68
2023-02-11T19:50:04.615Z,7.43
2023-02-11T19:55:07.980Z,7.80
2023-02-11T20:00:11.498Z,8.02
2023-02-11T20:05:17.120Z,9.27
2023-02-11T20:10:19.629Z,6.18
2023-02-11T20:15:22.193Z,6.28
2023-02-11T20:20:24.660Z,8.07
2023-02-11T20:25:29.861Z,7.95
2023-02-11T20:30:35.379Z,10.15
2023-02-11T20:35:38.257Z,9.98
2023-02-11T20:40:40.708Z,7.68
2023-02-11T20:45:43.224Z,8.60
2023-02-11T20:50:48.278Z,6.82
2023-02-11T20:55:51.032Z,10.70
2023-02-11T21:00:53.709Z,9.05
2023-02-11T21:05:59.134Z,8.95
2023-02-11T21:11:02.179Z,10.10
2023-02-11T21:16:05.567Z,6.63
2023-02-11T21:21:11.465Z,8.40
2023-02-11T21:26:14.583Z,9.98
2023-02-11T21:31:25.660Z,6.03
2023-02-11T21:36:29.199Z,1.45
2023-02-11T21:41:31.698Z,8.38
2023-02-11T21:46:34.193Z,8.25
2023-02-11T21:51:36.637Z,6.85
2023-02-11T21:56:39.044Z,7.70
2023-02-11T22:01:41.815Z,10.13
2023-02-11T22:07:09.617Z,7.45
2023-02-11T22:12:12.166Z,7.43
2023-02-11T22:17:14.980Z,5.68
2023-02-11T22:22:19.941Z,6.80
2023-02-11T22:27:22.694Z,6.38
2023-02-11T22:32:25.240Z,5.47
2023-02-11T22:37:27.802Z,7.90
2023-02-11T22:42:30.569Z,5.15
2023-02-11T22:47:33.110Z,7.60
2023-02-11T22:52:36.639Z,5.68
2023-02-11T22:57:42.079Z,7.43
2023-02-11T23:02:44.846Z,7.20
2023-02-11T23:07:47.448Z,5.18
2023-02-11T23:12:50.022Z,3.92
2023-02-11T23:17:52.570Z,4.07
2023-02-11T23:22:55.929Z,3.53
2023-02-11T23:27:59.102Z,3.60
2023-02-11T23:33:01.641Z,7.88
2023-02-11T23:38:05.245Z,7.47
2023-02-11T23:43:07.817Z,6.32
2023-02-11T23:48:13.389Z,4.68
2023-02-11T23:53:17.736Z,6.18
2023-02-11T23:58:20.361Z,4.95
